Macau, China
Current Conditions -  °F | °C
As of 3:30 PM on Saturday 25 Oct 2014 (Local Time) from VMMC Reporting Station
Few Clouds Few Clouds  
Wind Chill: 81°   Ceiling: Unl
Heat Index: 85°   Visibility: 6mi
Dew Point: 72°   Wind: 10mph
Humidity: 74%   Direction: 90°E
Pressure: 29.97"   Gusts: NA
Location:  22.2°N, 113.54°E
Report Text: VMMC 250730Z 09009KT 070V160 9999 FEW040 27/22 Q1015 NOSIG
Loading
Personal Weather Stations






























Interactive Weather Map
Tropical Storm Tracking
New forecast layout! Learn more

10-Day Weather Forecast

Advertisements
Track Severe Weather on mobile